sensor_id;sensor_type;location;lat;lon;timestamp;pressure;altitude;pressure_sealevel;temperature;humidity
59110;BME280;44895;47.438;18.978;2023-02-19T00:00:43;100175.50;;;10.50;100.00
59110;BME280;44895;47.438;18.978;2023-02-19T00:03:51;100170.16;;;10.64;100.00
59110;BME280;44895;47.438;18.978;2023-02-19T00:06:55;100168.16;;;10.51;100.00
59110;BME280;44895;47.438;18.978;2023-02-19T00:09:58;100171.41;;;10.53;100.00
59110;BME280;44895;47.438;18.978;2023-02-19T00:13:02;100166.53;;;10.50;100.00
59110;BME280;44895;47.438;18.978;2023-02-19T00:16:13;100167.28;;;10.55;100.00
59110;BME280;44895;47.438;18.978;2023-02-19T00:19:19;100173.53;;;10.56;100.00
59110;BME280;44895;47.438;18.978;2023-02-19T00:22:22;100172.72;;;10.55;100.00
59110;BME280;44895;47.438;18.978;2023-02-19T00:25:26;100156.69;;;10.54;100.00
59110;BME280;44895;47.438;18.978;2023-02-19T00:28:30;100165.97;;;10.53;100.00
59110;BME280;44895;47.438;18.978;2023-02-19T00:31:34;100156.44;;;10.55;100.00
59110;BME280;44895;47.438;18.978;2023-02-19T00:34:38;100161.78;;;10.60;100.00
59110;BME280;44895;47.438;18.978;2023-02-19T00:37:42;100164.75;;;10.64;100.00
59110;BME280;44895;47.438;18.978;2023-02-19T00:40:45;100157.16;;;10.61;100.00
59110;BME280;44895;47.438;18.978;2023-02-19T00:43:50;100153.66;;;10.60;100.00
59110;BME280;44895;47.438;18.978;2023-02-19T00:46:54;100150.63;;;10.62;100.00
59110;BME280;44895;47.438;18.978;2023-02-19T00:49:58;100154.13;;;10.43;100.00
59110;BME280;44895;47.438;18.978;2023-02-19T00:53:02;100141.44;;;10.39;100.00
59110;BME280;44895;47.438;18.978;2023-02-19T00:56:07;100149.94;;;10.51;100.00
59110;BME280;44895;47.438;18.978;2023-02-19T00:59:11;100153.13;;;10.58;100.00
59110;BME280;44895;47.438;18.978;2023-02-19T01:02:15;100151.41;;;10.43;100.00
59110;BME280;44895;47.438;18.978;2023-02-19T01:05:20;100152.00;;;10.40;100.00
59110;BME280;44895;47.438;18.978;2023-02-19T01:08:24;100161.25;;;10.34;100.00
59110;BME280;44895;47.438;18.978;2023-02-19T01:11:27;100153.31;;;10.43;100.00
59110;BME280;44895;47.438;18.978;2023-02-19T01:14:32;100149.28;;;10.40;100.00
59110;BME280;44895;47.438;18.978;2023-02-19T01:17:36;100150.41;;;10.34;100.00
59110;BME280;44895;47.438;18.978;2023-02-19T01:20:41;100145.47;;;10.17;100.00
59110;BME280;44895;47.438;18.978;2023-02-19T01:23:45;100150.13;;;10.11;100.00
59110;BME280;44895;47.438;18.978;2023-02-19T01:26:49;100151.75;;;10.12;100.00
59110;BME280;44895;47.438;18.978;2023-02-19T01:29:53;100153.75;;;10.02;100.00
59110;BME280;44895;47.438;18.978;2023-02-19T01:32:59;100150.84;;;9.93;100.00
59110;BME280;44895;47.438;18.978;2023-02-19T01:36:04;100150.34;;;9.91;100.00
59110;BME280;44895;47.438;18.978;2023-02-19T01:39:09;100151.69;;;9.93;100.00
59110;BME280;44895;47.438;18.978;2023-02-19T01:42:14;100148.91;;;9.99;100.00
59110;BME280;44895;47.438;18.978;2023-02-19T01:45:45;100144.88;;;9.96;100.00
59110;BME280;44895;47.438;18.978;2023-02-19T01:48:49;100149.75;;;9.94;100.00
59110;BME280;44895;47.438;18.978;2023-02-19T01:51:58;100143.50;;;9.99;100.00
59110;BME280;44895;47.438;18.978;2023-02-19T01:55:05;100139.31;;;10.06;100.00
59110;BME280;44895;47.438;18.978;2023-02-19T01:58:11;100135.28;;;10.04;100.00
59110;BME280;44895;47.438;18.978;2023-02-19T02:01:15;100139.22;;;10.17;100.00
59110;BME280;44895;47.438;18.978;2023-02-19T02:04:18;100142.78;;;10.12;100.00
59110;BME280;44895;47.438;18.978;2023-02-19T02:07:25;100142.38;;;10.24;100.00
59110;BME280;44895;47.438;18.978;2023-02-19T02:10:49;100135.81;;;10.30;100.00
59110;BME280;44895;47.438;18.978;2023-02-19T02:13:53;100130.50;;;10.20;100.00
59110;BME280;44895;47.438;18.978;2023-02-19T02:17:18;100141.88;;;10.22;100.00
59110;BME280;44895;47.438;18.978;2023-02-19T02:27:27;100138.22;;;10.32;100.00
59110;BME280;44895;47.438;18.978;2023-02-19T02:30:46;100139.69;;;10.24;100.00
59110;BME280;44895;47.438;18.978;2023-02-19T02:34:05;100140.91;;;10.12;100.00
59110;BME280;44895;47.438;18.978;2023-02-19T02:37:11;100135.09;;;10.19;100.00
59110;BME280;44895;47.438;18.978;2023-02-19T02:40:16;100135.34;;;10.23;100.00
59110;BME280;44895;47.438;18.978;2023-02-19T02:43:20;100135.34;;;10.23;100.00
59110;BME280;44895;47.438;18.978;2023-02-19T02:46:33;100125.06;;;10.20;100.00
59110;BME280;44895;47.438;18.978;2023-02-19T02:49:37;100117.78;;;10.15;100.00
59110;BME280;44895;47.438;18.978;2023-02-19T02:53:06;100120.56;;;10.10;100.00
59110;BME280;44895;47.438;18.978;2023-02-19T02:56:30;100129.75;;;10.14;100.00
59110;BME280;44895;47.438;18.978;2023-02-19T02:59:38;100134.44;;;10.08;100.00
59110;BME280;44895;47.438;18.978;2023-02-19T03:02:43;100128.06;;;9.94;100.00
59110;BME280;44895;47.438;18.978;2023-02-19T03:05:48;100131.72;;;10.08;100.00
59110;BME280;44895;47.438;18.978;2023-02-19T03:09:22;100114.97;;;10.01;100.00
59110;BME280;44895;47.438;18.978;2023-02-19T03:12:34;100112.81;;;9.98;100.00
59110;BME280;44895;47.438;18.978;2023-02-19T03:16:15;100121.19;;;10.02;100.00
59110;BME280;44895;47.438;18.978;2023-02-19T03:19:42;100126.63;;;10.02;100.00
59110;BME280;44895;47.438;18.978;2023-02-19T03:22:48;100124.38;;;9.85;100.00
59110;BME280;44895;47.438;18.978;2023-02-19T03:25:54;100136.72;;;9.72;100.00
59110;BME280;44895;47.438;18.978;2023-02-19T03:29:14;100133.97;;;9.48;100.00
59110;BME280;44895;47.438;18.978;2023-02-19T03:32:44;100133.34;;;9.56;100.00
59110;BME280;44895;47.438;18.978;2023-02-19T03:35:55;100125.69;;;9.63;100.00
59110;BME280;44895;47.438;18.978;2023-02-19T03:39:02;100131.47;;;9.81;100.00
59110;BME280;44895;47.438;18.978;2023-02-19T03:45:48;100126.38;;;9.44;100.00
59110;BME280;44895;47.438;18.978;2023-02-19T03:49:15;100132.78;;;9.54;100.00
59110;BME280;44895;47.438;18.978;2023-02-19T03:59:16;100129.69;;;9.02;100.00
59110;BME280;44895;47.438;18.978;2023-02-19T04:02:49;100129.88;;;9.16;100.00
59110;BME280;44895;47.438;18.978;2023-02-19T04:05:55;100138.84;;;8.66;100.00
59110;BME280;44895;47.438;18.978;2023-02-19T04:09:05;100149.13;;;8.74;100.00
59110;BME280;44895;47.438;18.978;2023-02-19T04:12:12;100147.47;;;8.78;100.00
59110;BME280;44895;47.438;18.978;2023-02-19T04:15:21;100137.53;;;8.63;100.00
59110;BME280;44895;47.438;18.978;2023-02-19T04:18:33;100143.06;;;8.32;100.00
59110;BME280;44895;47.438;18.978;2023-02-19T04:21:39;100145.59;;;7.93;100.00
59110;BME280;44895;47.438;18.978;2023-02-19T04:24:49;100144.72;;;8.18;100.00
59110;BME280;44895;47.438;18.978;2023-02-19T04:27:54;100149.34;;;8.18;100.00
59110;BME280;44895;47.438;18.978;2023-02-19T04:30:58;100149.63;;;8.16;100.00
59110;BME280;44895;47.438;18.978;2023-02-19T04:34:02;100153.94;;;8.12;100.00
59110;BME280;44895;47.438;18.978;2023-02-19T04:37:06;100157.78;;;7.85;100.00
59110;BME280;44895;47.438;18.978;2023-02-19T04:40:10;100156.19;;;7.63;100.00
59110;BME280;44895;47.438;18.978;2023-02-19T04:43:13;100161.31;;;7.65;100.00
59110;BME280;44895;47.438;18.978;2023-02-19T04:46:17;100157.28;;;7.52;100.00
59110;BME280;44895;47.438;18.978;2023-02-19T04:49:21;100155.94;;;7.75;100.00
59110;BME280;44895;47.438;18.978;2023-02-19T04:52:25;100154.88;;;7.35;100.00
59110;BME280;44895;47.438;18.978;2023-02-19T04:55:28;100159.97;;;7.62;100.00
59110;BME280;44895;47.438;18.978;2023-02-19T04:58:32;100140.81;;;7.48;100.00
59110;BME280;44895;47.438;18.978;2023-02-19T05:01:36;100148.06;;;7.74;100.00
59110;BME280;44895;47.438;18.978;2023-02-19T05:04:40;100146.22;;;7.59;100.00
59110;BME280;44895;47.438;18.978;2023-02-19T05:07:44;100154.06;;;7.65;100.00
59110;BME280;44895;47.438;18.978;2023-02-19T05:10:48;100142.88;;;7.98;100.00
59110;BME280;44895;47.438;18.978;2023-02-19T05:13:54;100155.94;;;7.80;100.00
59110;BME280;44895;47.438;18.978;2023-02-19T05:16:58;100145.91;;;7.81;100.00
59110;BME280;44895;47.438;18.978;2023-02-19T05:20:02;100142.94;;;7.77;100.00
59110;BME280;44895;47.438;18.978;2023-02-19T05:23:06;100133.44;;;8.00;100.00
59110;BME280;44895;47.438;18.978;2023-02-19T05:26:19;100138.94;;;8.45;100.00
59110;BME280;44895;47.438;18.978;2023-02-19T05:29:23;100136.72;;;8.63;100.00
59110;BME280;44895;47.438;18.978;2023-02-19T05:32:27;100133.16;;;8.68;100.00
59110;BME280;44895;47.438;18.978;2023-02-19T05:35:31;100126.94;;;8.67;100.00
59110;BME280;44895;47.438;18.978;2023-02-19T05:38:35;100120.72;;;8.67;100.00
59110;BME280;44895;47.438;18.978;2023-02-19T05:41:39;100122.94;;;8.59;100.00
59110;BME280;44895;47.438;18.978;2023-02-19T05:44:43;100116.72;;;8.54;100.00
59110;BME280;44895;47.438;18.978;2023-02-19T05:47:47;100133.47;;;8.61;100.00
59110;BME280;44895;47.438;18.978;2023-02-19T05:50:51;100138.59;;;8.62;100.00
59110;BME280;44895;47.438;18.978;2023-02-19T05:53:55;100140.50;;;8.62;100.00
59110;BME280;44895;47.438;18.978;2023-02-19T05:56:59;100145.94;;;8.62;100.00
59110;BME280;44895;47.438;18.978;2023-02-19T06:00:03;100157.59;;;8.57;100.00
59110;BME280;44895;47.438;18.978;2023-02-19T06:03:15;100154.13;;;8.41;100.00
59110;BME280;44895;47.438;18.978;2023-02-19T06:06:19;100144.91;;;8.37;100.00
59110;BME280;44895;47.438;18.978;2023-02-19T06:09:23;100143.84;;;8.33;100.00
59110;BME280;44895;47.438;18.978;2023-02-19T06:12:27;100141.69;;;8.35;100.00
59110;BME280;44895;47.438;18.978;2023-02-19T06:15:31;100139.50;;;8.37;100.00
59110;BME280;44895;47.438;18.978;2023-02-19T06:18:35;100138.19;;;8.29;100.00
59110;BME280;44895;47.438;18.978;2023-02-19T06:21:39;100133.88;;;8.23;100.00
59110;BME280;44895;47.438;18.978;2023-02-19T06:24:42;100136.88;;;8.16;100.00
59110;BME280;44895;47.438;18.978;2023-02-19T06:27:46;100126.63;;;8.13;100.00
59110;BME280;44895;47.438;18.978;2023-02-19T06:30:50;100139.06;;;8.20;100.00
59110;BME280;44895;47.438;18.978;2023-02-19T06:33:54;100121.72;;;8.15;100.00
59110;BME280;44895;47.438;18.978;2023-02-19T06:36:58;100120.41;;;8.08;100.00
59110;BME280;44895;47.438;18.978;2023-02-19T06:40:03;100120.66;;;8.16;100.00
59110;BME280;44895;47.438;18.978;2023-02-19T06:43:06;100120.59;;;8.27;100.00
59110;BME280;44895;47.438;18.978;2023-02-19T06:46:11;100120.94;;;8.10;100.00
59110;BME280;44895;47.438;18.978;2023-02-19T06:49:15;100110.97;;;8.00;100.00
59110;BME280;44895;47.438;18.978;2023-02-19T06:52:19;100117.69;;;8.13;100.00
59110;BME280;44895;47.438;18.978;2023-02-19T06:55:23;100116.13;;;7.91;100.00
59110;BME280;44895;47.438;18.978;2023-02-19T06:58:27;100117.94;;;8.16;100.00
59110;BME280;44895;47.438;18.978;2023-02-19T07:01:33;100114.88;;;8.39;100.00
59110;BME280;44895;47.438;18.978;2023-02-19T07:04:36;100117.22;;;8.61;100.00
59110;BME280;44895;47.438;18.978;2023-02-19T07:07:40;100120.19;;;8.64;100.00
59110;BME280;44895;47.438;18.978;2023-02-19T07:10:44;100115.88;;;8.58;100.00
59110;BME280;44895;47.438;18.978;2023-02-19T07:13:53;100123.16;;;8.68;100.00
59110;BME280;44895;47.438;18.978;2023-02-19T07:16:57;100130.94;;;8.80;100.00
59110;BME280;44895;47.438;18.978;2023-02-19T07:20:01;100132.06;;;8.69;100.00
59110;BME280;44895;47.438;18.978;2023-02-19T07:23:04;100119.44;;;8.48;100.00
59110;BME280;44895;47.438;18.978;2023-02-19T07:26:13;100137.59;;;8.43;100.00
59110;BME280;44895;47.438;18.978;2023-02-19T07:29:17;100126.59;;;8.24;100.00
59110;BME280;44895;47.438;18.978;2023-02-19T07:32:20;100127.88;;;8.37;100.00
59110;BME280;44895;47.438;18.978;2023-02-19T07:35:24;100108.38;;;8.35;100.00
59110;BME280;44895;47.438;18.978;2023-02-19T07:38:28;100117.63;;;8.33;100.00
59110;BME280;44895;47.438;18.978;2023-02-19T07:41:32;100100.56;;;8.33;100.00
59110;BME280;44895;47.438;18.978;2023-02-19T07:44:35;100106.53;;;8.30;100.00
59110;BME280;44895;47.438;18.978;2023-02-19T07:47:39;100082.69;;;8.32;100.00
59110;BME280;44895;47.438;18.978;2023-02-19T07:50:53;100096.22;;;8.32;100.00
59110;BME280;44895;47.438;18.978;2023-02-19T07:53:58;100107.00;;;8.53;100.00
59110;BME280;44895;47.438;18.978;2023-02-19T07:57:02;100114.75;;;8.70;100.00
59110;BME280;44895;47.438;18.978;2023-02-19T08:00:06;100120.34;;;9.18;100.00
59110;BME280;44895;47.438;18.978;2023-02-19T08:03:15;100131.41;;;9.56;100.00
59110;BME280;44895;47.438;18.978;2023-02-19T08:06:19;100139.75;;;9.65;100.00
59110;BME280;44895;47.438;18.978;2023-02-19T08:09:23;100145.22;;;9.60;100.00
59110;BME280;44895;47.438;18.978;2023-02-19T08:12:27;100153.19;;;9.46;100.00
59110;BME280;44895;47.438;18.978;2023-02-19T08:15:51;100157.28;;;9.43;100.00
59110;BME280;44895;47.438;18.978;2023-02-19T08:18:55;100170.53;;;9.50;100.00
59110;BME280;44895;47.438;18.978;2023-02-19T08:21:59;100169.47;;;9.46;100.00
59110;BME280;44895;47.438;18.978;2023-02-19T08:25:02;100175.47;;;9.43;100.00
59110;BME280;44895;47.438;18.978;2023-02-19T08:28:07;100173.50;;;9.49;100.00
59110;BME280;44895;47.438;18.978;2023-02-19T08:31:11;100166.25;;;9.44;100.00
59110;BME280;44895;47.438;18.978;2023-02-19T08:34:15;100162.66;;;9.49;100.00
59110;BME280;44895;47.438;18.978;2023-02-19T08:37:18;100159.13;;;9.53;100.00
59110;BME280;44895;47.438;18.978;2023-02-19T08:40:26;100159.25;;;9.67;100.00
59110;BME280;44895;47.438;18.978;2023-02-19T08:43:30;100148.13;;;9.69;100.00
59110;BME280;44895;47.438;18.978;2023-02-19T08:46:33;100152.06;;;9.82;100.00
59110;BME280;44895;47.438;18.978;2023-02-19T08:49:37;100157.53;;;9.76;100.00
59110;BME280;44895;47.438;18.978;2023-02-19T08:52:41;100153.09;;;9.61;100.00
59110;BME280;44895;47.438;18.978;2023-02-19T08:55:44;100158.81;;;9.55;100.00
59110;BME280;44895;47.438;18.978;2023-02-19T08:58:48;100158.31;;;9.53;100.00
59110;BME280;44895;47.438;18.978;2023-02-19T09:01:52;100143.97;;;9.47;100.00
59110;BME280;44895;47.438;18.978;2023-02-19T09:04:55;100164.81;;;9.52;100.00
59110;BME280;44895;47.438;18.978;2023-02-19T09:07:59;100159.75;;;9.45;100.00
59110;BME280;44895;47.438;18.978;2023-02-19T09:11:04;100157.66;;;9.32;100.00
59110;BME280;44895;47.438;18.978;2023-02-19T09:14:09;100156.81;;;9.36;100.00
59110;BME280;44895;47.438;18.978;2023-02-19T09:17:13;100155.13;;;9.45;100.00
59110;BME280;44895;47.438;18.978;2023-02-19T09:20:17;100144.66;;;9.34;100.00
59110;BME280;44895;47.438;18.978;2023-02-19T09:23:21;100150.13;;;9.23;100.00
59110;BME280;44895;47.438;18.978;2023-02-19T09:26:24;100156.38;;;9.24;100.00
59110;BME280;44895;47.438;18.978;2023-02-19T09:29:29;100148.44;;;9.33;100.00
59110;BME280;44895;47.438;18.978;2023-02-19T09:32:33;100148.06;;;9.44;100.00
59110;BME280;44895;47.438;18.978;2023-02-19T09:35:38;100142.59;;;9.50;100.00
59110;BME280;44895;47.438;18.978;2023-02-19T09:38:42;100135.59;;;9.43;100.00
59110;BME280;44895;47.438;18.978;2023-02-19T09:41:55;100133.28;;;9.61;100.00
59110;BME280;44895;47.438;18.978;2023-02-19T09:45:00;100131.59;;;9.65;100.00
59110;BME280;44895;47.438;18.978;2023-02-19T09:48:07;100128.19;;;9.84;100.00
59110;BME280;44895;47.438;18.978;2023-02-19T09:51:14;100141.19;;;9.87;100.00
59110;BME280;44895;47.438;18.978;2023-02-19T09:54:24;100126.09;;;9.75;100.00
59110;BME280;44895;47.438;18.978;2023-02-19T09:57:30;100138.34;;;9.97;100.00
59110;BME280;44895;47.438;18.978;2023-02-19T10:00:36;100122.75;;;10.08;100.00
59110;BME280;44895;47.438;18.978;2023-02-19T10:03:44;100109.34;;;10.17;100.00
59110;BME280;44895;47.438;18.978;2023-02-19T10:06:50;100107.19;;;10.62;100.00
59110;BME280;44895;47.438;18.978;2023-02-19T10:10:01;100095.84;;;10.55;100.00
59110;BME280;44895;47.438;18.978;2023-02-19T10:13:35;100101.81;;;11.28;100.00
59110;BME280;44895;47.438;18.978;2023-02-19T10:16:42;100087.03;;;11.01;100.00
59110;BME280;44895;47.438;18.978;2023-02-19T10:19:48;100091.75;;;11.29;100.00
59110;BME280;44895;47.438;18.978;2023-02-19T10:23:02;100074.69;;;11.70;100.00
59110;BME280;44895;47.438;18.978;2023-02-19T10:26:06;100074.03;;;12.06;100.00
59110;BME280;44895;47.438;18.978;2023-02-19T10:29:10;100066.34;;;11.80;100.00
59110;BME280;44895;47.438;18.978;2023-02-19T10:32:21;100067.41;;;12.35;100.00
59110;BME280;44895;47.438;18.978;2023-02-19T10:35:27;100054.91;;;12.48;100.00
59110;BME280;44895;47.438;18.978;2023-02-19T10:38:36;100047.72;;;13.20;100.00
59110;BME280;44895;47.438;18.978;2023-02-19T10:41:41;100044.19;;;12.97;100.00
59110;BME280;44895;47.438;18.978;2023-02-19T10:44:53;100041.06;;;12.81;100.00
59110;BME280;44895;47.438;18.978;2023-02-19T10:48:01;100022.13;;;12.76;100.00
59110;BME280;44895;47.438;18.978;2023-02-19T10:51:08;100019.25;;;12.81;100.00
59110;BME280;44895;47.438;18.978;2023-02-19T10:54:18;100012.84;;;13.08;100.00
59110;BME280;44895;47.438;18.978;2023-02-19T10:57:26;100014.66;;;13.44;100.00
59110;BME280;44895;47.438;18.978;2023-02-19T11:00:35;100014.91;;;13.34;100.00
59110;BME280;44895;47.438;18.978;2023-02-19T11:03:40;100002.03;;;13.57;100.00
59110;BME280;44895;47.438;18.978;2023-02-19T11:06:44;100010.38;;;13.52;100.00
59110;BME280;44895;47.438;18.978;2023-02-19T11:09:49;99990.66;;;13.32;100.00
59110;BME280;44895;47.438;18.978;2023-02-19T11:13:01;99999.66;;;13.33;100.00
59110;BME280;44895;47.438;18.978;2023-02-19T11:16:05;99997.22;;;13.63;100.00
59110;BME280;44895;47.438;18.978;2023-02-19T11:25:35;99988.53;;;14.36;100.00
59110;BME280;44895;47.438;18.978;2023-02-19T11:28:40;99990.09;;;14.11;100.00
59110;BME280;44895;47.438;18.978;2023-02-19T11:31:44;99990.94;;;14.11;100.00
59110;BME280;44895;47.438;18.978;2023-02-19T11:34:49;99975.41;;;13.72;100.00
59110;BME280;44895;47.438;18.978;2023-02-19T11:37:56;99969.25;;;14.15;100.00
59110;BME280;44895;47.438;18.978;2023-02-19T11:54:50;99929.56;;;14.09;100.00
59110;BME280;44895;47.438;18.978;2023-02-19T11:58:25;99930.84;;;14.11;100.00
59110;BME280;44895;47.438;18.978;2023-02-19T12:04:58;99914.47;;;14.11;100.00
59110;BME280;44895;47.438;18.978;2023-02-19T12:12:15;99900.91;;;14.67;100.00
59110;BME280;44895;47.438;18.978;2023-02-19T12:15:31;99903.63;;;14.59;100.00
59110;BME280;44895;47.438;18.978;2023-02-19T12:22:26;99881.63;;;14.46;100.00
59110;BME280;44895;47.438;18.978;2023-02-19T12:25:48;99884.38;;;14.46;100.00
59110;BME280;44895;47.438;18.978;2023-02-19T12:29:23;99877.44;;;14.58;100.00
59110;BME280;44895;47.438;18.978;2023-02-19T12:43:28;99869.72;;;14.68;100.00
59110;BME280;44895;47.438;18.978;2023-02-19T12:46:41;99863.78;;;14.58;100.00
59110;BME280;44895;47.438;18.978;2023-02-19T12:49:57;99879.84;;;14.68;100.00
59110;BME280;44895;47.438;18.978;2023-02-19T12:56:46;99878.47;;;14.92;100.00
59110;BME280;44895;47.438;18.978;2023-02-19T13:09:34;99857.69;;;14.99;100.00
59110;BME280;44895;47.438;18.978;2023-02-19T13:12:41;99844.03;;;14.99;100.00
59110;BME280;44895;47.438;18.978;2023-02-19T13:15:51;99859.13;;;15.06;100.00
59110;BME280;44895;47.438;18.978;2023-02-19T13:18:58;99849.50;;;15.29;100.00
59110;BME280;44895;47.438;18.978;2023-02-19T13:22:13;99838.03;;;15.15;100.00
59110;BME280;44895;47.438;18.978;2023-02-19T13:36:10;99820.09;;;14.96;100.00
59110;BME280;44895;47.438;18.978;2023-02-19T13:39:18;99823.66;;;14.88;100.00
59110;BME280;44895;47.438;18.978;2023-02-19T13:42:33;99835.88;;;14.91;100.00
59110;BME280;44895;47.438;18.978;2023-02-19T13:45:43;99883.59;;;14.37;100.00
59110;BME280;44895;47.438;18.978;2023-02-19T14:06:02;99946.53;;;11.71;100.00
59110;BME280;44895;47.438;18.978;2023-02-19T14:12:46;100012.16;;;11.09;100.00
59110;BME280;44895;47.438;18.978;2023-02-19T14:15:50;100046.47;;;10.53;100.00
59110;BME280;44895;47.438;18.978;2023-02-19T14:18:54;100033.84;;;9.81;100.00
59110;BME280;44895;47.438;18.978;2023-02-19T14:21:59;100021.47;;;9.93;100.00
59110;BME280;44895;47.438;18.978;2023-02-19T14:25:08;100021.66;;;9.78;100.00
59110;BME280;44895;47.438;18.978;2023-02-19T14:28:27;100012.53;;;9.69;100.00
59110;BME280;44895;47.438;18.978;2023-02-19T14:31:35;100019.38;;;9.85;100.00
59110;BME280;44895;47.438;18.978;2023-02-19T14:34:43;100014.19;;;9.89;100.00
59110;BME280;44895;47.438;18.978;2023-02-19T14:37:50;100023.03;;;9.75;100.00
59110;BME280;44895;47.438;18.978;2023-02-19T14:40:55;100017.38;;;10.15;100.00
59110;BME280;44895;47.438;18.978;2023-02-19T14:44:02;100016.44;;;9.82;100.00
59110;BME280;44895;47.438;18.978;2023-02-19T14:47:12;100017.56;;;9.81;100.00
59110;BME280;44895;47.438;18.978;2023-02-19T14:50:27;100020.34;;;9.75;100.00
59110;BME280;44895;47.438;18.978;2023-02-19T14:53:37;100023.00;;;10.00;100.00
59110;BME280;44895;47.438;18.978;2023-02-19T14:56:45;100012.88;;;10.05;100.00
59110;BME280;44895;47.438;18.978;2023-02-19T14:59:56;100012.59;;;10.07;100.00
59110;BME280;44895;47.438;18.978;2023-02-19T15:03:01;100016.19;;;10.02;100.00
59110;BME280;44895;47.438;18.978;2023-02-19T15:06:14;100021.72;;;10.35;100.00
59110;BME280;44895;47.438;18.978;2023-02-19T15:09:30;100045.53;;;10.19;100.00
59110;BME280;44895;47.438;18.978;2023-02-19T15:12:48;100067.75;;;10.02;100.00
59110;BME280;44895;47.438;18.978;2023-02-19T15:15:54;100080.25;;;9.98;100.00
59110;BME280;44895;47.438;18.978;2023-02-19T15:19:00;100088.16;;;9.70;100.00
59110;BME280;44895;47.438;18.978;2023-02-19T15:22:18;100080.38;;;9.63;100.00
59110;BME280;44895;47.438;18.978;2023-02-19T15:25:23;100083.44;;;9.81;100.00
59110;BME280;44895;47.438;18.978;2023-02-19T15:28:31;100080.00;;;9.75;100.00
59110;BME280;44895;47.438;18.978;2023-02-19T15:31:55;100086.56;;;9.69;100.00
59110;BME280;44895;47.438;18.978;2023-02-19T15:35:01;100092.44;;;9.76;100.00
59110;BME280;44895;47.438;18.978;2023-02-19T15:38:09;100089.84;;;9.66;100.00
59110;BME280;44895;47.438;18.978;2023-02-19T15:41:20;100107.78;;;9.62;100.00
59110;BME280;44895;47.438;18.978;2023-02-19T15:44:44;100083.63;;;9.36;100.00
59110;BME280;44895;47.438;18.978;2023-02-19T15:51:00;100081.28;;;9.24;100.00
59110;BME280;44895;47.438;18.978;2023-02-19T15:54:24;100082.66;;;9.22;100.00
59110;BME280;44895;47.438;18.978;2023-02-19T15:57:35;100075.91;;;9.19;100.00
59110;BME280;44895;47.438;18.978;2023-02-19T16:00:56;100078.25;;;8.96;100.00
59110;BME280;44895;47.438;18.978;2023-02-19T16:04:01;100058.63;;;9.15;100.00
59110;BME280;44895;47.438;18.978;2023-02-19T16:07:27;100069.78;;;9.08;100.00
59110;BME280;44895;47.438;18.978;2023-02-19T16:10:31;100070.28;;;9.10;100.00
59110;BME280;44895;47.438;18.978;2023-02-19T16:13:35;100080.50;;;9.24;100.00
59110;BME280;44895;47.438;18.978;2023-02-19T16:16:41;100084.25;;;9.28;100.00
59110;BME280;44895;47.438;18.978;2023-02-19T16:23:02;100113.25;;;9.27;100.00
59110;BME280;44895;47.438;18.978;2023-02-19T16:26:06;100104.31;;;9.27;100.00
59110;BME280;44895;47.438;18.978;2023-02-19T16:29:25;100097.84;;;9.23;100.00
59110;BME280;44895;47.438;18.978;2023-02-19T16:32:30;100108.38;;;9.24;100.00
59110;BME280;44895;47.438;18.978;2023-02-19T16:35:36;100114.69;;;9.20;100.00
59110;BME280;44895;47.438;18.978;2023-02-19T16:38:56;100122.22;;;9.23;100.00
59110;BME280;44895;47.438;18.978;2023-02-19T16:42:10;100123.84;;;9.24;100.00
59110;BME280;44895;47.438;18.978;2023-02-19T16:45:17;100143.28;;;9.36;100.00
59110;BME280;44895;47.438;18.978;2023-02-19T16:48:23;100150.88;;;9.34;100.00
59110;BME280;44895;47.438;18.978;2023-02-19T16:51:27;100152.00;;;9.28;100.00
59110;BME280;44895;47.438;18.978;2023-02-19T16:54:31;100155.28;;;9.25;100.00
59110;BME280;44895;47.438;18.978;2023-02-19T16:57:36;100166.69;;;9.22;100.00
59110;BME280;44895;47.438;18.978;2023-02-19T17:00:40;100161.66;;;9.05;100.00
59110;BME280;44895;47.438;18.978;2023-02-19T17:03:45;100172.59;;;8.89;100.00
59110;BME280;44895;47.438;18.978;2023-02-19T17:06:50;100174.50;;;8.84;100.00
59110;BME280;44895;47.438;18.978;2023-02-19T17:09:54;100199.44;;;8.86;100.00
59110;BME280;44895;47.438;18.978;2023-02-19T17:12:59;100156.69;;;8.72;100.00
59110;BME280;44895;47.438;18.978;2023-02-19T17:16:04;100175.09;;;8.80;100.00
59110;BME280;44895;47.438;18.978;2023-02-19T17:19:13;100178.94;;;8.69;100.00
59110;BME280;44895;47.438;18.978;2023-02-19T17:22:18;100188.97;;;8.63;100.00
59110;BME280;44895;47.438;18.978;2023-02-19T17:25:24;100194.13;;;8.55;100.00
59110;BME280;44895;47.438;18.978;2023-02-19T17:28:29;100168.41;;;8.57;100.00
59110;BME280;44895;47.438;18.978;2023-02-19T17:31:34;100176.28;;;8.54;100.00
59110;BME280;44895;47.438;18.978;2023-02-19T17:34:38;100187.66;;;8.51;100.00
59110;BME280;44895;47.438;18.978;2023-02-19T17:37:43;100179.59;;;8.35;100.00
59110;BME280;44895;47.438;18.978;2023-02-19T17:40:47;100180.63;;;8.39;100.00
59110;BME280;44895;47.438;18.978;2023-02-19T17:43:51;100195.50;;;8.42;100.00
59110;BME280;44895;47.438;18.978;2023-02-19T17:46:56;100203.69;;;8.26;100.00
59110;BME280;44895;47.438;18.978;2023-02-19T17:50:00;100209.09;;;8.31;100.00
59110;BME280;44895;47.438;18.978;2023-02-19T17:53:04;100216.16;;;8.17;100.00
59110;BME280;44895;47.438;18.978;2023-02-19T17:56:09;100229.38;;;8.34;100.00